sensor_id;sensor_type;location;lat;lon;timestamp;pressure;altitude;pressure_sealevel;temperature;humidity
16544;BME280;8384;47.996;7.786;2023-05-17T00:01:46;99158.41;;;6.25;100.00
16544;BME280;8384;47.996;7.786;2023-05-17T00:04:12;99152.22;;;6.18;100.00
16544;BME280;8384;47.996;7.786;2023-05-17T00:06:37;99171.22;;;5.86;100.00
16544;BME280;8384;47.996;7.786;2023-05-17T00:09:02;99157.03;;;5.84;100.00
16544;BME280;8384;47.996;7.786;2023-05-17T00:11:28;99175.91;;;5.97;100.00
16544;BME280;8384;47.996;7.786;2023-05-17T00:13:53;99157.31;;;6.08;100.00
16544;BME280;8384;47.996;7.786;2023-05-17T00:16:18;99176.09;;;6.53;100.00
16544;BME280;8384;47.996;7.786;2023-05-17T00:18:43;99158.44;;;6.44;100.00
16544;BME280;8384;47.996;7.786;2023-05-17T00:21:09;99170.16;;;6.19;100.00
16544;BME280;8384;47.996;7.786;2023-05-17T00:23:35;99176.66;;;6.18;100.00
16544;BME280;8384;47.996;7.786;2023-05-17T00:26:00;99177.56;;;6.56;100.00
16544;BME280;8384;47.996;7.786;2023-05-17T00:28:25;99174.84;;;6.56;100.00
16544;BME280;8384;47.996;7.786;2023-05-17T00:30:50;99189.97;;;6.20;100.00
16544;BME280;8384;47.996;7.786;2023-05-17T00:33:16;99176.06;;;6.09;100.00
16544;BME280;8384;47.996;7.786;2023-05-17T00:35:41;99162.78;;;6.01;100.00
16544;BME280;8384;47.996;7.786;2023-05-17T00:38:06;99198.78;;;6.15;100.00
16544;BME280;8384;47.996;7.786;2023-05-17T00:40:31;99170.84;;;5.82;100.00
16544;BME280;8384;47.996;7.786;2023-05-17T00:42:57;99177.44;;;5.93;100.00
16544;BME280;8384;47.996;7.786;2023-05-17T00:45:22;99197.34;;;6.38;100.00
16544;BME280;8384;47.996;7.786;2023-05-17T00:47:47;99204.72;;;6.56;100.00
16544;BME280;8384;47.996;7.786;2023-05-17T00:50:13;99213.75;;;6.50;100.00
16544;BME280;8384;47.996;7.786;2023-05-17T00:52:38;99175.34;;;5.95;100.00
16544;BME280;8384;47.996;7.786;2023-05-17T00:55:04;99202.28;;;5.90;100.00
16544;BME280;8384;47.996;7.786;2023-05-17T00:57:30;99193.91;;;5.92;100.00
16544;BME280;8384;47.996;7.786;2023-05-17T00:59:56;99208.09;;;5.94;100.00
16544;BME280;8384;47.996;7.786;2023-05-17T01:02:21;99179.38;;;5.86;100.00
16544;BME280;8384;47.996;7.786;2023-05-17T01:04:47;99198.03;;;5.69;100.00
16544;BME280;8384;47.996;7.786;2023-05-17T01:07:14;99201.38;;;5.71;100.00
16544;BME280;8384;47.996;7.786;2023-05-17T01:09:40;99158.19;;;5.37;100.00
16544;BME280;8384;47.996;7.786;2023-05-17T01:17:37;99191.97;;;5.35;100.00
16544;BME280;8384;47.996;7.786;2023-05-17T01:22:31;99217.31;;;5.54;100.00
16544;BME280;8384;47.996;7.786;2023-05-17T01:28:11;99185.25;;;4.99;100.00
16544;BME280;8384;47.996;7.786;2023-05-17T01:30:38;99220.56;;;5.24;100.00
16544;BME280;8384;47.996;7.786;2023-05-17T01:33:04;99226.81;;;5.31;100.00
16544;BME280;8384;47.996;7.786;2023-05-17T01:35:30;99226.91;;;5.04;100.00
16544;BME280;8384;47.996;7.786;2023-05-17T01:37:55;99181.41;;;4.61;100.00
16544;BME280;8384;47.996;7.786;2023-05-17T01:40:20;99229.75;;;5.23;100.00
16544;BME280;8384;47.996;7.786;2023-05-17T01:42:51;99232.56;;;5.03;100.00
16544;BME280;8384;47.996;7.786;2023-05-17T01:45:22;99230.88;;;4.95;100.00
16544;BME280;8384;47.996;7.786;2023-05-17T01:47:59;99235.88;;;4.98;100.00
16544;BME280;8384;47.996;7.786;2023-05-17T01:50:28;99201.56;;;4.78;100.00
16544;BME280;8384;47.996;7.786;2023-05-17T01:53:02;99232.59;;;4.83;100.00
16544;BME280;8384;47.996;7.786;2023-05-17T01:55:49;99142.94;;;4.32;100.00
16544;BME280;8384;47.996;7.786;2023-05-17T01:58:15;99237.34;;;4.94;100.00
16544;BME280;8384;47.996;7.786;2023-05-17T02:00:43;99205.09;;;4.72;100.00
16544;BME280;8384;47.996;7.786;2023-05-17T02:03:17;99223.78;;;4.94;100.00
16544;BME280;8384;47.996;7.786;2023-05-17T02:05:43;99175.47;;;4.98;100.00
16544;BME280;8384;47.996;7.786;2023-05-17T02:08:08;99207.38;;;5.41;100.00
16544;BME280;8384;47.996;7.786;2023-05-17T02:10:33;99229.00;;;5.54;100.00
16544;BME280;8384;47.996;7.786;2023-05-17T02:12:59;99238.19;;;5.53;100.00
16544;BME280;8384;47.996;7.786;2023-05-17T02:15:24;99240.34;;;5.77;100.00
16544;BME280;8384;47.996;7.786;2023-05-17T02:17:49;99226.16;;;5.81;100.00
16544;BME280;8384;47.996;7.786;2023-05-17T02:20:14;99211.38;;;5.70;100.00
16544;BME280;8384;47.996;7.786;2023-05-17T02:22:40;99227.94;;;5.94;100.00
16544;BME280;8384;47.996;7.786;2023-05-17T02:25:06;99210.78;;;5.68;100.00
16544;BME280;8384;47.996;7.786;2023-05-17T02:27:32;99226.09;;;5.88;100.00
16544;BME280;8384;47.996;7.786;2023-05-17T02:29:57;99202.28;;;5.58;100.00
16544;BME280;8384;47.996;7.786;2023-05-17T02:32:22;99229.25;;;5.46;100.00
16544;BME280;8384;47.996;7.786;2023-05-17T02:34:48;99203.13;;;5.52;100.00
16544;BME280;8384;47.996;7.786;2023-05-17T02:37:13;99219.06;;;5.74;100.00
16544;BME280;8384;47.996;7.786;2023-05-17T02:39:38;99238.66;;;5.82;100.00
16544;BME280;8384;47.996;7.786;2023-05-17T02:42:03;99245.94;;;5.82;100.00
16544;BME280;8384;47.996;7.786;2023-05-17T02:44:29;99211.66;;;5.62;100.00
16544;BME280;8384;47.996;7.786;2023-05-17T02:46:54;99236.19;;;5.74;100.00
16544;BME280;8384;47.996;7.786;2023-05-17T02:49:19;99247.25;;;5.73;100.00
16544;BME280;8384;47.996;7.786;2023-05-17T02:51:44;99204.28;;;5.31;100.00
16544;BME280;8384;47.996;7.786;2023-05-17T02:54:10;99250.47;;;5.56;100.00
16544;BME280;8384;47.996;7.786;2023-05-17T02:56:35;99245.28;;;5.54;100.00
16544;BME280;8384;47.996;7.786;2023-05-17T02:59:00;99223.66;;;5.34;100.00
16544;BME280;8384;47.996;7.786;2023-05-17T03:01:26;99247.69;;;5.69;100.00
16544;BME280;8384;47.996;7.786;2023-05-17T03:03:52;99208.56;;;5.52;100.00
16544;BME280;8384;47.996;7.786;2023-05-17T03:06:17;99251.91;;;5.59;100.00
16544;BME280;8384;47.996;7.786;2023-05-17T03:08:43;99193.22;;;4.87;100.00
16544;BME280;8384;47.996;7.786;2023-05-17T03:11:08;99247.09;;;5.15;100.00
16544;BME280;8384;47.996;7.786;2023-05-17T03:13:33;99256.84;;;5.23;100.00
16544;BME280;8384;47.996;7.786;2023-05-17T03:15:59;99244.59;;;5.07;100.00
16544;BME280;8384;47.996;7.786;2023-05-17T03:18:24;99251.91;;;5.59;100.00
16544;BME280;8384;47.996;7.786;2023-05-17T03:20:50;99233.94;;;5.19;100.00
16544;BME280;8384;47.996;7.786;2023-05-17T03:23:15;99228.94;;;5.22;100.00
16544;BME280;8384;47.996;7.786;2023-05-17T03:25:40;99244.31;;;5.35;100.00
16544;BME280;8384;47.996;7.786;2023-05-17T03:28:05;99254.53;;;5.33;100.00
16544;BME280;8384;47.996;7.786;2023-05-17T03:30:31;99217.91;;;5.17;100.00
16544;BME280;8384;47.996;7.786;2023-05-17T03:32:56;99255.59;;;5.32;100.00
16544;BME280;8384;47.996;7.786;2023-05-17T03:35:21;99260.41;;;5.17;100.00
16544;BME280;8384;47.996;7.786;2023-05-17T03:37:47;99255.13;;;5.42;100.00
16544;BME280;8384;47.996;7.786;2023-05-17T03:40:12;99259.94;;;5.40;100.00
16544;BME280;8384;47.996;7.786;2023-05-17T03:42:37;99223.13;;;5.12;100.00
16544;BME280;8384;47.996;7.786;2023-05-17T03:45:03;99274.34;;;5.27;100.00
16544;BME280;8384;47.996;7.786;2023-05-17T03:47:28;99250.84;;;5.14;100.00
16544;BME280;8384;47.996;7.786;2023-05-17T03:49:54;99271.66;;;5.27;100.00
16544;BME280;8384;47.996;7.786;2023-05-17T03:52:19;99263.97;;;5.17;100.00
16544;BME280;8384;47.996;7.786;2023-05-17T03:54:44;99252.56;;;5.02;100.00
16544;BME280;8384;47.996;7.786;2023-05-17T03:57:09;99270.41;;;5.23;100.00
16544;BME280;8384;47.996;7.786;2023-05-17T03:59:35;99267.94;;;5.15;100.00
16544;BME280;8384;47.996;7.786;2023-05-17T04:02:00;99280.81;;;5.26;100.00
16544;BME280;8384;47.996;7.786;2023-05-17T04:04:25;99283.34;;;5.21;100.00
16544;BME280;8384;47.996;7.786;2023-05-17T04:06:51;99284.59;;;5.18;100.00
16544;BME280;8384;47.996;7.786;2023-05-17T04:09:16;99272.16;;;4.90;100.00
16544;BME280;8384;47.996;7.786;2023-05-17T04:11:42;99283.19;;;5.02;100.00
16544;BME280;8384;47.996;7.786;2023-05-17T04:14:07;99293.81;;;4.97;100.00
16544;BME280;8384;47.996;7.786;2023-05-17T04:16:32;99288.41;;;4.97;100.00
16544;BME280;8384;47.996;7.786;2023-05-17T04:19:01;99286.50;;;5.04;100.00
16544;BME280;8384;47.996;7.786;2023-05-17T04:21:26;99270.66;;;5.15;100.00
16544;BME280;8384;47.996;7.786;2023-05-17T04:23:52;99294.34;;;5.33;100.00
16544;BME280;8384;47.996;7.786;2023-05-17T04:26:17;99292.84;;;5.44;100.00
16544;BME280;8384;47.996;7.786;2023-05-17T04:28:43;99285.13;;;5.47;100.00
16544;BME280;8384;47.996;7.786;2023-05-17T04:31:09;99283.66;;;5.51;100.00
16544;BME280;8384;47.996;7.786;2023-05-17T04:33:35;99267.47;;;5.31;100.00
16544;BME280;8384;47.996;7.786;2023-05-17T04:36:01;99304.81;;;5.81;100.00
16544;BME280;8384;47.996;7.786;2023-05-17T04:38:27;99285.06;;;5.67;100.00
16544;BME280;8384;47.996;7.786;2023-05-17T04:40:52;99301.25;;;5.81;100.00
16544;BME280;8384;47.996;7.786;2023-05-17T04:43:17;99285.44;;;5.71;100.00
16544;BME280;8384;47.996;7.786;2023-05-17T04:45:42;99274.25;;;5.54;100.00
16544;BME280;8384;47.996;7.786;2023-05-17T04:48:08;99290.41;;;5.81;100.00
16544;BME280;8384;47.996;7.786;2023-05-17T04:50:34;99313.50;;;5.97;100.00
16544;BME280;8384;47.996;7.786;2023-05-17T04:52:59;99310.75;;;6.04;100.00
16544;BME280;8384;47.996;7.786;2023-05-17T04:55:25;99310.16;;;6.02;100.00
16544;BME280;8384;47.996;7.786;2023-05-17T04:57:50;99314.94;;;6.06;100.00
16544;BME280;8384;47.996;7.786;2023-05-17T05:00:16;99316.03;;;6.30;99.48
16544;BME280;8384;47.996;7.786;2023-05-17T05:02:41;99315.59;;;6.34;98.66
16544;BME280;8384;47.996;7.786;2023-05-17T05:05:07;99308.75;;;6.24;97.44
16544;BME280;8384;47.996;7.786;2023-05-17T05:07:33;99301.59;;;6.37;95.79
16544;BME280;8384;47.996;7.786;2023-05-17T05:09:59;99332.81;;;6.53;93.79
16544;BME280;8384;47.996;7.786;2023-05-17T05:12:25;99325.75;;;6.45;94.47
16544;BME280;8384;47.996;7.786;2023-05-17T05:14:50;99312.44;;;6.37;93.63
16544;BME280;8384;47.996;7.786;2023-05-17T05:17:16;99335.34;;;6.48;92.91
16544;BME280;8384;47.996;7.786;2023-05-17T05:19:41;99342.31;;;6.37;93.51
16544;BME280;8384;47.996;7.786;2023-05-17T05:22:06;99314.47;;;6.09;94.81
16544;BME280;8384;47.996;7.786;2023-05-17T05:24:32;99322.63;;;6.09;95.50
16544;BME280;8384;47.996;7.786;2023-05-17T05:26:57;99325.94;;;6.11;95.75
16544;BME280;8384;47.996;7.786;2023-05-17T05:29:22;99329.75;;;6.04;95.95
16544;BME280;8384;47.996;7.786;2023-05-17T05:31:47;99310.59;;;5.92;96.28
16544;BME280;8384;47.996;7.786;2023-05-17T05:34:13;99333.47;;;6.16;97.02
16544;BME280;8384;47.996;7.786;2023-05-17T05:36:38;99351.56;;;6.29;95.92
16544;BME280;8384;47.996;7.786;2023-05-17T05:39:03;99354.22;;;6.36;95.03
16544;BME280;8384;47.996;7.786;2023-05-17T05:41:30;99357.91;;;6.48;95.39
16544;BME280;8384;47.996;7.786;2023-05-17T05:43:55;99330.75;;;6.48;93.92
16544;BME280;8384;47.996;7.786;2023-05-17T05:46:21;99333.13;;;6.38;93.46
16544;BME280;8384;47.996;7.786;2023-05-17T05:48:46;99344.91;;;6.57;93.16
16544;BME280;8384;47.996;7.786;2023-05-17T05:51:11;99336.94;;;6.55;93.13
16544;BME280;8384;47.996;7.786;2023-05-17T05:53:37;99334.41;;;6.60;93.68
16544;BME280;8384;47.996;7.786;2023-05-17T05:56:02;99348.78;;;6.68;92.93
16544;BME280;8384;47.996;7.786;2023-05-17T05:58:29;99349.50;;;6.82;92.88
16544;BME280;8384;47.996;7.786;2023-05-17T06:00:55;99339.75;;;6.74;93.03
16544;BME280;8384;47.996;7.786;2023-05-17T06:03:21;99318.56;;;6.83;93.62
16544;BME280;8384;47.996;7.786;2023-05-17T06:05:46;99368.41;;;7.20;91.85
16544;BME280;8384;47.996;7.786;2023-05-17T06:08:11;99368.59;;;7.19;93.07
16544;BME280;8384;47.996;7.786;2023-05-17T06:10:37;99363.56;;;7.23;90.88
16544;BME280;8384;47.996;7.786;2023-05-17T06:13:02;99366.38;;;7.34;90.80
16544;BME280;8384;47.996;7.786;2023-05-17T06:15:27;99353.41;;;7.37;91.80
16544;BME280;8384;47.996;7.786;2023-05-17T06:17:52;99338.94;;;7.36;91.64
16544;BME280;8384;47.996;7.786;2023-05-17T06:20:18;99356.03;;;7.62;90.25
16544;BME280;8384;47.996;7.786;2023-05-17T06:22:43;99342.66;;;7.60;88.60
16544;BME280;8384;47.996;7.786;2023-05-17T06:25:09;99317.88;;;7.50;88.15
16544;BME280;8384;47.996;7.786;2023-05-17T06:27:35;99375.28;;;7.98;88.97
16544;BME280;8384;47.996;7.786;2023-05-17T06:30:01;99376.84;;;8.24;86.30
16544;BME280;8384;47.996;7.786;2023-05-17T06:32:26;99326.63;;;8.20;81.34
16544;BME280;8384;47.996;7.786;2023-05-17T06:34:51;99381.13;;;8.62;78.18
16544;BME280;8384;47.996;7.786;2023-05-17T06:37:17;99366.94;;;8.60;79.73
16544;BME280;8384;47.996;7.786;2023-05-17T06:39:42;99363.75;;;8.75;77.70
16544;BME280;8384;47.996;7.786;2023-05-17T06:42:07;99376.47;;;8.93;79.72
16544;BME280;8384;47.996;7.786;2023-05-17T06:44:32;99381.59;;;9.02;77.55
16544;BME280;8384;47.996;7.786;2023-05-17T06:46:58;99362.75;;;9.12;78.45
16544;BME280;8384;47.996;7.786;2023-05-17T06:49:25;99386.34;;;9.18;80.22
16544;BME280;8384;47.996;7.786;2023-05-17T06:51:50;99389.31;;;9.28;80.51
16544;BME280;8384;47.996;7.786;2023-05-17T06:54:15;99357.88;;;9.14;78.35
16544;BME280;8384;47.996;7.786;2023-05-17T06:56:43;99393.69;;;9.41;78.47
16544;BME280;8384;47.996;7.786;2023-05-17T06:59:09;99392.03;;;9.64;77.92
16544;BME280;8384;47.996;7.786;2023-05-17T07:01:34;99388.31;;;9.82;77.26
16544;BME280;8384;47.996;7.786;2023-05-17T07:03:59;99392.94;;;9.82;74.18
16544;BME280;8384;47.996;7.786;2023-05-17T07:06:25;99369.34;;;9.75;74.74
16544;BME280;8384;47.996;7.786;2023-05-17T07:08:50;99362.50;;;10.02;74.90
16544;BME280;8384;47.996;7.786;2023-05-17T07:11:15;99377.34;;;10.35;71.29
16544;BME280;8384;47.996;7.786;2023-05-17T07:13:40;99347.34;;;10.23;72.85
16544;BME280;8384;47.996;7.786;2023-05-17T07:16:06;99367.22;;;10.47;73.29
16544;BME280;8384;47.996;7.786;2023-05-17T07:18:32;99360.19;;;10.52;71.45
16544;BME280;8384;47.996;7.786;2023-05-17T07:20:58;99368.78;;;10.43;70.58
16544;BME280;8384;47.996;7.786;2023-05-17T07:23:23;99386.88;;;10.61;71.35
16544;BME280;8384;47.996;7.786;2023-05-17T07:25:48;99370.25;;;10.80;70.64
16544;BME280;8384;47.996;7.786;2023-05-17T07:28:13;99390.31;;;11.20;70.19
16544;BME280;8384;47.996;7.786;2023-05-17T07:30:39;99378.63;;;11.24;63.66
16544;BME280;8384;47.996;7.786;2023-05-17T07:33:04;99386.56;;;11.26;63.70
16544;BME280;8384;47.996;7.786;2023-05-17T07:35:30;99365.44;;;11.21;58.87
16544;BME280;8384;47.996;7.786;2023-05-17T07:37:55;99391.31;;;11.31;58.61
16544;BME280;8384;47.996;7.786;2023-05-17T07:40:20;99394.03;;;11.31;58.29
16544;BME280;8384;47.996;7.786;2023-05-17T07:42:46;99393.09;;;11.42;57.29
16544;BME280;8384;47.996;7.786;2023-05-17T07:45:11;99397.75;;;11.42;56.52
16544;BME280;8384;47.996;7.786;2023-05-17T07:47:36;99396.28;;;11.34;55.46
16544;BME280;8384;47.996;7.786;2023-05-17T07:50:02;99391.63;;;11.34;54.02
16544;BME280;8384;47.996;7.786;2023-05-17T07:52:28;99383.00;;;11.43;54.36
16544;BME280;8384;47.996;7.786;2023-05-17T07:54:53;99394.19;;;11.80;55.00
16544;BME280;8384;47.996;7.786;2023-05-17T07:57:18;99363.69;;;11.72;54.18
16544;BME280;8384;47.996;7.786;2023-05-17T07:59:43;99391.16;;;12.21;52.67
16544;BME280;8384;47.996;7.786;2023-05-17T08:02:09;99374.06;;;12.36;51.15
16544;BME280;8384;47.996;7.786;2023-05-17T08:04:34;99405.47;;;12.51;48.79
16544;BME280;8384;47.996;7.786;2023-05-17T08:07:00;99407.06;;;12.47;50.21
16544;BME280;8384;47.996;7.786;2023-05-17T08:09:26;99393.63;;;12.45;49.49
16544;BME280;8384;47.996;7.786;2023-05-17T08:11:51;99373.50;;;12.34;49.68
16544;BME280;8384;47.996;7.786;2023-05-17T08:14:16;99384.09;;;12.53;49.45
16544;BME280;8384;47.996;7.786;2023-05-17T08:16:45;99374.97;;;12.74;50.01
16544;BME280;8384;47.996;7.786;2023-05-17T08:19:11;99405.03;;;12.92;48.73
16544;BME280;8384;47.996;7.786;2023-05-17T08:21:38;99385.84;;;12.37;48.03
16544;BME280;8384;47.996;7.786;2023-05-17T08:24:04;99368.72;;;12.24;49.72
16544;BME280;8384;47.996;7.786;2023-05-17T08:26:29;99365.19;;;12.51;51.05
16544;BME280;8384;47.996;7.786;2023-05-17T08:28:54;99382.44;;;12.52;49.80
16544;BME280;8384;47.996;7.786;2023-05-17T08:31:20;99403.97;;;12.38;49.06
16544;BME280;8384;47.996;7.786;2023-05-17T08:33:45;99387.78;;;12.36;48.51
16544;BME280;8384;47.996;7.786;2023-05-17T08:36:10;99350.69;;;12.28;49.64
16544;BME280;8384;47.996;7.786;2023-05-17T08:38:35;99382.53;;;12.89;49.68
16544;BME280;8384;47.996;7.786;2023-05-17T08:41:01;99390.16;;;13.15;47.41
16544;BME280;8384;47.996;7.786;2023-05-17T08:43:27;99400.75;;;13.01;48.21
16544;BME280;8384;47.996;7.786;2023-05-17T08:45:53;99400.16;;;12.66;48.88
16544;BME280;8384;47.996;7.786;2023-05-17T08:48:21;99401.16;;;12.87;47.51
16544;BME280;8384;47.996;7.786;2023-05-17T08:50:49;99402.06;;;12.93;46.28
16544;BME280;8384;47.996;7.786;2023-05-17T08:53:15;99384.91;;;13.13;47.36
16544;BME280;8384;47.996;7.786;2023-05-17T08:55:44;99419.22;;;13.43;47.60
16544;BME280;8384;47.996;7.786;2023-05-17T08:58:15;99416.91;;;13.68;45.30
16544;BME280;8384;47.996;7.786;2023-05-17T09:00:43;99410.56;;;13.67;43.82
16544;BME280;8384;47.996;7.786;2023-05-17T09:03:12;99406.88;;;13.94;43.43
16544;BME280;8384;47.996;7.786;2023-05-17T09:05:40;99413.66;;;14.34;44.88
16544;BME280;8384;47.996;7.786;2023-05-17T09:08:05;99407.94;;;14.57;43.69
16544;BME280;8384;47.996;7.786;2023-05-17T09:10:31;99415.59;;;14.44;43.50
16544;BME280;8384;47.996;7.786;2023-05-17T09:12:57;99409.03;;;14.50;42.91
16544;BME280;8384;47.996;7.786;2023-05-17T09:15:22;99407.94;;;14.67;43.62
16544;BME280;8384;47.996;7.786;2023-05-17T09:17:54;99409.88;;;14.66;44.35
16544;BME280;8384;47.996;7.786;2023-05-17T09:20:27;99404.44;;;14.82;41.53
16544;BME280;8384;47.996;7.786;2023-05-17T09:23:00;99415.34;;;14.56;40.27
16544;BME280;8384;47.996;7.786;2023-05-17T09:25:27;99411.78;;;14.55;40.09
16544;BME280;8384;47.996;7.786;2023-05-17T09:27:54;99408.25;;;14.70;41.18
16544;BME280;8384;47.996;7.786;2023-05-17T09:30:31;99410.69;;;14.51;41.90
16544;BME280;8384;47.996;7.786;2023-05-17T09:33:04;99408.00;;;14.77;41.95
16544;BME280;8384;47.996;7.786;2023-05-17T09:35:31;99416.56;;;15.27;40.39
16544;BME280;8384;47.996;7.786;2023-05-17T09:38:04;99376.09;;;15.33;39.46
16544;BME280;8384;47.996;7.786;2023-05-17T09:40:30;99415.38;;;16.01;39.73
16544;BME280;8384;47.996;7.786;2023-05-17T09:42:57;99399.28;;;16.24;39.07
16544;BME280;8384;47.996;7.786;2023-05-17T09:45:23;99407.09;;;16.01;38.93
16544;BME280;8384;47.996;7.786;2023-05-17T09:47:49;99409.59;;;15.82;39.09
16544;BME280;8384;47.996;7.786;2023-05-17T09:50:19;99389.84;;;15.33;38.46
16544;BME280;8384;47.996;7.786;2023-05-17T09:52:44;99376.91;;;15.23;39.24
16544;BME280;8384;47.996;7.786;2023-05-17T09:55:10;99414.00;;;14.53;40.90
16544;BME280;8384;47.996;7.786;2023-05-17T09:57:37;99417.28;;;14.61;41.36
16544;BME280;8384;47.996;7.786;2023-05-17T10:00:03;99385.16;;;14.82;40.27
16544;BME280;8384;47.996;7.786;2023-05-17T10:02:35;99399.41;;;14.63;39.81
16544;BME280;8384;47.996;7.786;2023-05-17T10:05:03;99404.03;;;14.42;39.60
16544;BME280;8384;47.996;7.786;2023-05-17T10:07:32;99384.59;;;14.80;39.02
16544;BME280;8384;47.996;7.786;2023-05-17T10:09:58;99365.34;;;15.21;39.18
16544;BME280;8384;47.996;7.786;2023-05-17T10:12:26;99408.03;;;15.08;37.78
16544;BME280;8384;47.996;7.786;2023-05-17T10:14:54;99407.44;;;15.42;39.39
16544;BME280;8384;47.996;7.786;2023-05-17T10:17:20;99416.25;;;15.60;37.91
16544;BME280;8384;47.996;7.786;2023-05-17T10:19:46;99415.19;;;15.25;38.13
16544;BME280;8384;47.996;7.786;2023-05-17T10:22:11;99411.00;;;15.69;39.04
16544;BME280;8384;47.996;7.786;2023-05-17T10:24:38;99412.56;;;16.11;38.42
16544;BME280;8384;47.996;7.786;2023-05-17T10:27:04;99410.44;;;16.93;36.83
16544;BME280;8384;47.996;7.786;2023-05-17T10:29:31;99414.44;;;16.21;42.89
16544;BME280;8384;47.996;7.786;2023-05-17T10:31:57;99353.16;;;15.58;45.43
16544;BME280;8384;47.996;7.786;2023-05-17T10:34:24;99377.34;;;15.87;44.77
16544;BME280;8384;47.996;7.786;2023-05-17T10:36:50;99393.69;;;14.75;46.81
16544;BME280;8384;47.996;7.786;2023-05-17T10:39:16;99375.94;;;14.24;48.40
16544;BME280;8384;47.996;7.786;2023-05-17T10:41:43;99377.06;;;14.39;49.45
16544;BME280;8384;47.996;7.786;2023-05-17T10:44:12;99395.63;;;15.47;47.24
16544;BME280;8384;47.996;7.786;2023-05-17T10:46:38;99387.09;;;15.02;44.98
16544;BME280;8384;47.996;7.786;2023-05-17T10:49:04;99380.38;;;14.41;47.00
16544;BME280;8384;47.996;7.786;2023-05-17T10:51:31;99384.56;;;14.59;48.27
16544;BME280;8384;47.996;7.786;2023-05-17T10:54:11;99388.50;;;14.94;45.90
16544;BME280;8384;47.996;7.786;2023-05-17T10:56:41;99376.25;;;14.44;48.71
16544;BME280;8384;47.996;7.786;2023-05-17T10:59:20;99392.25;;;13.83;49.91
16544;BME280;8384;47.996;7.786;2023-05-17T11:01:58;99387.56;;;13.78;49.93
16544;BME280;8384;47.996;7.786;2023-05-17T11:04:33;99389.19;;;13.74;49.06
16544;BME280;8384;47.996;7.786;2023-05-17T11:10:09;99381.00;;;13.85;51.76
16544;BME280;8384;47.996;7.786;2023-05-17T11:15:08;99392.78;;;14.49;49.42
16544;BME280;8384;47.996;7.786;2023-05-17T11:17:45;99377.44;;;14.99;47.13
16544;BME280;8384;47.996;7.786;2023-05-17T11:22:49;99388.41;;;15.56;45.00
16544;BME280;8384;47.996;7.786;2023-05-17T11:25:15;99379.09;;;15.37;46.70
16544;BME280;8384;47.996;7.786;2023-05-17T11:27:51;99381.59;;;15.18;47.46
16544;BME280;8384;47.996;7.786;2023-05-17T11:30:17;99385.69;;;14.74;48.52
16544;BME280;8384;47.996;7.786;2023-05-17T11:32:52;99382.34;;;14.61;47.13
16544;BME280;8384;47.996;7.786;2023-05-17T11:35:22;99370.75;;;14.44;47.23
16544;BME280;8384;47.996;7.786;2023-05-17T11:37:53;99371.13;;;14.89;47.58
16544;BME280;8384;47.996;7.786;2023-05-17T11:40:35;99368.88;;;14.65;48.12
16544;BME280;8384;47.996;7.786;2023-05-17T11:43:23;99351.50;;;14.38;48.47
16544;BME280;8384;47.996;7.786;2023-05-17T11:45:54;99366.06;;;14.34;50.21
16544;BME280;8384;47.996;7.786;2023-05-17T11:48:22;99370.03;;;14.95;48.26
16544;BME280;8384;47.996;7.786;2023-05-17T11:50:49;99368.38;;;15.04;47.58
16544;BME280;8384;47.996;7.786;2023-05-17T11:53:16;99367.94;;;14.23;48.54
16544;BME280;8384;47.996;7.786;2023-05-17T11:55:43;99351.63;;;13.90;48.72
16544;BME280;8384;47.996;7.786;2023-05-17T11:58:10;99368.84;;;14.60;49.16
16544;BME280;8384;47.996;7.786;2023-05-17T12:00:40;99325.84;;;14.07;50.04
16544;BME280;8384;47.996;7.786;2023-05-17T12:03:23;99364.56;;;14.00;50.59
16544;BME280;8384;47.996;7.786;2023-05-17T12:05:54;99322.28;;;14.12;49.22
16544;BME280;8384;47.996;7.786;2023-05-17T12:08:25;99324.09;;;13.80;47.83
16544;BME280;8384;47.996;7.786;2023-05-17T12:10:51;99354.81;;;14.40;47.71
16544;BME280;8384;47.996;7.786;2023-05-17T12:13:18;99349.38;;;15.18;46.61
16544;BME280;8384;47.996;7.786;2023-05-17T12:15:50;99351.59;;;15.16;45.33
16544;BME280;8384;47.996;7.786;2023-05-17T12:18:17;99334.25;;;15.00;45.54
16544;BME280;8384;47.996;7.786;2023-05-17T12:20:55;99356.81;;;15.07;46.46
16544;BME280;8384;47.996;7.786;2023-05-17T12:23:36;99357.88;;;14.65;47.13
16544;BME280;8384;47.996;7.786;2023-05-17T12:28:28;99352.63;;;14.53;48.69
16544;BME280;8384;47.996;7.786;2023-05-17T12:30:54;99342.78;;;14.88;46.60
16544;BME280;8384;47.996;7.786;2023-05-17T12:33:23;99322.13;;;15.01;47.16
16544;BME280;8384;47.996;7.786;2023-05-17T12:35:50;99341.41;;;15.01;45.72
16544;BME280;8384;47.996;7.786;2023-05-17T12:38:16;99361.50;;;15.12;45.72
16544;BME280;8384;47.996;7.786;2023-05-17T12:40:42;99330.91;;;15.19;45.46
16544;BME280;8384;47.996;7.786;2023-05-17T12:43:08;99311.94;;;15.07;45.46
16544;BME280;8384;47.996;7.786;2023-05-17T12:45:33;99343.16;;;15.83;43.62
16544;BME280;8384;47.996;7.786;2023-05-17T12:47:59;99331.34;;;16.73;43.17
16544;BME280;8384;47.996;7.786;2023-05-17T12:50:28;99335.59;;;16.60;43.98
16544;BME280;8384;47.996;7.786;2023-05-17T12:52:57;99315.13;;;15.55;42.98
16544;BME280;8384;47.996;7.786;2023-05-17T12:55:23;99348.09;;;16.02;43.51
16544;BME280;8384;47.996;7.786;2023-05-17T12:57:50;99345.66;;;15.69;43.39
16544;BME280;8384;47.996;7.786;2023-05-17T13:00:16;99340.31;;;14.81;44.93
16544;BME280;8384;47.996;7.786;2023-05-17T13:02:41;99341.41;;;14.91;45.60
16544;BME280;8384;47.996;7.786;2023-05-17T13:05:17;99343.88;;;14.87;46.16
16544;BME280;8384;47.996;7.786;2023-05-17T13:07:44;99348.81;;;15.00;46.01
16544;BME280;8384;47.996;7.786;2023-05-17T13:10:23;99324.88;;;14.85;45.58
16544;BME280;8384;47.996;7.786;2023-05-17T13:12:55;99324.75;;;14.13;47.16
16544;BME280;8384;47.996;7.786;2023-05-17T13:15:26;99309.28;;;13.86;46.61
16544;BME280;8384;47.996;7.786;2023-05-17T13:17:51;99324.19;;;14.06;46.80
16544;BME280;8384;47.996;7.786;2023-05-17T13:20:16;99321.75;;;14.20;46.88
16544;BME280;8384;47.996;7.786;2023-05-17T13:22:45;99314.16;;;14.74;46.47
16544;BME280;8384;47.996;7.786;2023-05-17T13:25:11;99307.28;;;14.81;44.44
16544;BME280;8384;47.996;7.786;2023-05-17T13:27:36;99298.72;;;14.98;45.18
16544;BME280;8384;47.996;7.786;2023-05-17T13:30:02;99319.31;;;15.37;45.27
16544;BME280;8384;47.996;7.786;2023-05-17T13:32:27;99317.19;;;14.88;46.76